VRG2340 PGUM-PTKK
Flight info
| Callsign | VRG2340 |
|---|---|
| Flight time | 1h 25m |
| Altitude | 35000 |
| Route | GUNSS WUMVE |
| Aircraft | B738/M-SDE2E3FGHIRWXY/LB1 |
Departure
| Time | 2026-04-26 01:43 |
|---|---|
| Airport | Antonio B. Won Pat International Airport (PGUM) |
Arrival
| Time | 2026-04-26 03:08 |
|---|---|
| Airport | Chuuk International Airport (PTKK) |
| Time | Latitude | Longitude | Altitude | Speed | Heading |
|---|---|---|---|---|---|
| 2026-04-26 01:09 | 13.48997 | 144.80220 | 269 ft | 0 kts | 333° |
| 2026-04-26 01:30 | 13.48994 | 144.80222 | 270 ft | 2 kts | 333° |
| 2026-04-26 01:30 | 13.48980 | 144.80229 | 271 ft | 2 kts | 333° |
| 2026-04-26 01:30 | 13.48967 | 144.80235 | 272 ft | 2 kts | 333° |
| 2026-04-26 01:30 | 13.48954 | 144.80241 | 273 ft | 2 kts | 333° |
| 2026-04-26 01:31 | 13.48945 | 144.80246 | 274 ft | 1 kts | 333° |
| 2026-04-26 01:31 | 13.48933 | 144.80255 | 276 ft | 2 kts | 314° |
| 2026-04-26 01:31 | 13.48924 | 144.80267 | 278 ft | 2 kts | 299° |
| 2026-04-26 01:31 | 13.48918 | 144.80281 | 279 ft | 2 kts | 283° |
| 2026-04-26 01:32 | 13.48916 | 144.80296 | 281 ft | 2 kts | 267° |
| 2026-04-26 01:32 | 13.48919 | 144.80312 | 282 ft | 2 kts | 251° |
| 2026-04-26 01:32 | 13.48921 | 144.80318 | 283 ft | 1 kts | 244° |
| 2026-04-26 01:32 | 13.48922 | 144.80321 | 283 ft | 0 kts | 245° |
| 2026-04-26 01:34 | 13.48922 | 144.80319 | 283 ft | 1 kts | 245° |
| 2026-04-26 01:34 | 13.48898 | 144.80289 | 281 ft | 10 kts | 227° |
| 2026-04-26 01:34 | 13.48844 | 144.80217 | 278 ft | 15 kts | 243° |
| 2026-04-26 01:35 | 13.48792 | 144.80106 | 275 ft | 18 kts | 245° |
| 2026-04-26 01:35 | 13.48734 | 144.79979 | 274 ft | 18 kts | 245° |
| 2026-04-26 01:35 | 13.48678 | 144.79857 | 275 ft | 19 kts | 244° |
| 2026-04-26 01:35 | 13.48619 | 144.79729 | 276 ft | 18 kts | 244° |
| 2026-04-26 01:36 | 13.48561 | 144.79604 | 275 ft | 20 kts | 245° |
| 2026-04-26 01:36 | 13.48506 | 144.79483 | 274 ft | 19 kts | 245° |
| 2026-04-26 01:36 | 13.48449 | 144.79356 | 272 ft | 19 kts | 245° |
| 2026-04-26 01:37 | 13.48336 | 144.79109 | 266 ft | 16 kts | 244° |
| 2026-04-26 01:37 | 13.48280 | 144.78990 | 263 ft | 20 kts | 244° |
| 2026-04-26 01:37 | 13.48222 | 144.78867 | 259 ft | 20 kts | 244° |
| 2026-04-26 01:37 | 13.48163 | 144.78738 | 254 ft | 19 kts | 245° |
| 2026-04-26 01:38 | 13.48101 | 144.78598 | 250 ft | 21 kts | 246° |
| 2026-04-26 01:38 | 13.48051 | 144.78487 | 246 ft | 18 kts | 245° |
| 2026-04-26 01:38 | 13.47994 | 144.78365 | 244 ft | 16 kts | 244° |
| 2026-04-26 01:38 | 13.47940 | 144.78249 | 240 ft | 16 kts | 245° |
| 2026-04-26 01:39 | 13.47902 | 144.78166 | 237 ft | 8 kts | 240° |
| 2026-04-26 01:39 | 13.47879 | 144.78142 | 236 ft | 0 kts | 205° |
| 2026-04-26 01:40 | 13.47877 | 144.78142 | 236 ft | 2 kts | 202° |
| 2026-04-26 01:40 | 13.47846 | 144.78142 | 235 ft | 4 kts | 165° |
| 2026-04-26 01:41 | 13.47816 | 144.78152 | 235 ft | 4 kts | 157° |
| 2026-04-26 01:41 | 13.47793 | 144.78168 | 236 ft | 4 kts | 124° |
| 2026-04-26 01:41 | 13.47795 | 144.78186 | 236 ft | 0 kts | 63° |
| 2026-04-26 01:42 | 13.47884 | 144.78380 | 248 ft | 61 kts | 65° |
| 2026-04-26 01:42 | 13.48155 | 144.78976 | 264 ft | 119 kts | 65° |
| 2026-04-26 01:42 | 13.48586 | 144.79890 | 307 ft | 162 kts | 63° |
| 2026-04-26 01:42 | 13.49070 | 144.80953 | 803 ft | 165 kts | 65° |
| 2026-04-26 01:43 | 13.49502 | 144.82033 | 1424 ft | 166 kts | 67° |
| 2026-04-26 01:43 | 13.49893 | 144.83121 | 2083 ft | 164 kts | 75° |
| 2026-04-26 01:43 | 13.49740 | 144.84335 | 2366 ft | 189 kts | 117° |
| 2026-04-26 01:43 | 13.48645 | 144.85197 | 2723 ft | 214 kts | 155° |
| 2026-04-26 01:44 | 13.47132 | 144.85641 | 3081 ft | 231 kts | 156° |
| 2026-04-26 01:44 | 13.45650 | 144.86331 | 3442 ft | 241 kts | 141° |
| 2026-04-26 01:44 | 13.44342 | 144.87437 | 3903 ft | 248 kts | 129° |
| 2026-04-26 01:44 | 13.43145 | 144.88789 | 4333 ft | 260 kts | 126° |
| 2026-04-26 01:45 | 13.41968 | 144.90227 | 4876 ft | 268 kts | 126° |
| 2026-04-26 01:45 | 13.40751 | 144.91711 | 5533 ft | 272 kts | 127° |
| 2026-04-26 01:45 | 13.39524 | 144.93190 | 6192 ft | 275 kts | 127° |
| 2026-04-26 01:45 | 13.38280 | 144.94676 | 6856 ft | 278 kts | 128° |
| 2026-04-26 01:46 | 13.37021 | 144.96179 | 7493 ft | 281 kts | 128° |
| 2026-04-26 01:46 | 13.35728 | 144.97725 | 8121 ft | 285 kts | 129° |
| 2026-04-26 01:46 | 13.34433 | 144.99274 | 8720 ft | 291 kts | 129° |
| 2026-04-26 01:46 | 13.33098 | 145.00867 | 9311 ft | 295 kts | 129° |
| 2026-04-26 01:47 | 13.31761 | 145.02458 | 9930 ft | 298 kts | 129° |
| 2026-04-26 01:47 | 13.30406 | 145.04077 | 10409 ft | 307 kts | 129° |
| 2026-04-26 01:47 | 13.28968 | 145.05797 | 10725 ft | 321 kts | 129° |
| 2026-04-26 01:47 | 13.27479 | 145.07573 | 11029 ft | 335 kts | 129° |
| 2026-04-26 01:48 | 13.25931 | 145.09422 | 11310 ft | 349 kts | 130° |
| 2026-04-26 01:48 | 13.24308 | 145.11362 | 11632 ft | 360 kts | 129° |
| 2026-04-26 01:48 | 13.22673 | 145.13312 | 12125 ft | 365 kts | 130° |
| 2026-04-26 01:48 | 13.20995 | 145.15314 | 12718 ft | 368 kts | 129° |
| 2026-04-26 01:49 | 13.19340 | 145.17287 | 13320 ft | 369 kts | 129° |
| 2026-04-26 01:49 | 13.17647 | 145.19305 | 13876 ft | 373 kts | 130° |
| 2026-04-26 01:49 | 13.15950 | 145.21330 | 14425 ft | 376 kts | 130° |
| 2026-04-26 01:49 | 13.14236 | 145.23377 | 14963 ft | 380 kts | 130° |
| 2026-04-26 01:50 | 13.12499 | 145.25449 | 15502 ft | 384 kts | 129° |
| 2026-04-26 01:50 | 13.10754 | 145.27530 | 16024 ft | 387 kts | 129° |
| 2026-04-26 01:50 | 13.08982 | 145.29643 | 16549 ft | 390 kts | 129° |
| 2026-04-26 01:50 | 13.07191 | 145.31778 | 17023 ft | 395 kts | 129° |
| 2026-04-26 01:51 | 13.05393 | 145.33920 | 17519 ft | 398 kts | 129° |
| 2026-04-26 01:51 | 13.03573 | 145.36087 | 18075 ft | 399 kts | 129° |
| 2026-04-26 01:51 | 13.01772 | 145.38231 | 18622 ft | 400 kts | 129° |
| 2026-04-26 01:51 | 12.99948 | 145.40404 | 19143 ft | 402 kts | 129° |
| 2026-04-26 01:52 | 12.98115 | 145.42584 | 19629 ft | 405 kts | 129° |
| 2026-04-26 01:52 | 12.96275 | 145.44772 | 20114 ft | 407 kts | 129° |
| 2026-04-26 01:52 | 12.94432 | 145.46965 | 20613 ft | 408 kts | 129° |
| 2026-04-26 01:52 | 12.92576 | 145.49171 | 21089 ft | 410 kts | 129° |
| 2026-04-26 01:53 | 12.90703 | 145.51399 | 21508 ft | 414 kts | 130° |
| 2026-04-26 01:53 | 12.88811 | 145.53650 | 21964 ft | 416 kts | 130° |
| 2026-04-26 01:53 | 12.86930 | 145.55887 | 22433 ft | 417 kts | 130° |
| 2026-04-26 01:53 | 12.85024 | 145.58151 | 22847 ft | 420 kts | 130° |
| 2026-04-26 01:54 | 12.83104 | 145.60434 | 23202 ft | 424 kts | 130° |
| 2026-04-26 01:54 | 12.81169 | 145.62733 | 23541 ft | 428 kts | 130° |
| 2026-04-26 01:54 | 12.79231 | 145.65036 | 23928 ft | 431 kts | 130° |
| 2026-04-26 01:54 | 12.77256 | 145.67383 | 24330 ft | 434 kts | 130° |
| 2026-04-26 01:55 | 12.75284 | 145.69724 | 24660 ft | 438 kts | 130° |
| 2026-04-26 01:55 | 12.73275 | 145.72107 | 24993 ft | 442 kts | 130° |
| 2026-04-26 01:55 | 12.71270 | 145.74486 | 25332 ft | 446 kts | 130° |
| 2026-04-26 01:55 | 12.69228 | 145.76907 | 25703 ft | 448 kts | 130° |
| 2026-04-26 01:56 | 12.67192 | 145.79321 | 26039 ft | 452 kts | 130° |
| 2026-04-26 01:56 | 12.65139 | 145.81755 | 26372 ft | 455 kts | 131° |
| 2026-04-26 01:56 | 12.63074 | 145.84203 | 26716 ft | 457 kts | 131° |
| 2026-04-26 01:56 | 12.60960 | 145.86708 | 27013 ft | 461 kts | 131° |
| 2026-04-26 01:57 | 12.58862 | 145.89194 | 27324 ft | 465 kts | 131° |
| 2026-04-26 01:57 | 12.56753 | 145.91692 | 27721 ft | 465 kts | 131° |
| 2026-04-26 01:57 | 12.54623 | 145.94214 | 27984 ft | 469 kts | 131° |
| 2026-04-26 01:57 | 12.52505 | 145.96721 | 28298 ft | 472 kts | 131° |
| 2026-04-26 01:58 | 12.50338 | 145.99286 | 28602 ft | 475 kts | 131° |
| 2026-04-26 01:58 | 12.48143 | 146.01883 | 28907 ft | 478 kts | 131° |
| 2026-04-26 01:58 | 12.45964 | 146.04460 | 29228 ft | 479 kts | 131° |
| 2026-04-26 01:58 | 12.43746 | 146.07083 | 29493 ft | 483 kts | 131° |
| 2026-04-26 01:59 | 12.41542 | 146.09688 | 29960 ft | 480 kts | 131° |
| 2026-04-26 01:59 | 12.39377 | 146.12247 | 30470 ft | 477 kts | 131° |
| 2026-04-26 01:59 | 12.37188 | 146.14833 | 30875 ft | 477 kts | 131° |
| 2026-04-26 01:59 | 12.35020 | 146.17394 | 31249 ft | 476 kts | 131° |
| 2026-04-26 02:00 | 12.32824 | 146.19987 | 31581 ft | 477 kts | 131° |
| 2026-04-26 02:00 | 12.30676 | 146.22523 | 31933 ft | 477 kts | 131° |
| 2026-04-26 02:00 | 12.28478 | 146.25117 | 32267 ft | 477 kts | 131° |
| 2026-04-26 02:00 | 12.26320 | 146.27661 | 32617 ft | 476 kts | 131° |
| 2026-04-26 02:01 | 12.24135 | 146.30238 | 33012 ft | 476 kts | 131° |
| 2026-04-26 02:01 | 12.21979 | 146.32781 | 33453 ft | 474 kts | 131° |
| 2026-04-26 02:01 | 12.19804 | 146.35345 | 33847 ft | 472 kts | 131° |
| 2026-04-26 02:01 | 12.17658 | 146.37875 | 34266 ft | 470 kts | 131° |
| 2026-04-26 02:02 | 12.15508 | 146.40410 | 34702 ft | 468 kts | 131° |
| 2026-04-26 02:02 | 12.13373 | 146.42926 | 34934 ft | 469 kts | 131° |
| 2026-04-26 02:02 | 12.11209 | 146.45473 | 34925 ft | 470 kts | 132° |
| 2026-04-26 02:03 | 12.06941 | 146.50497 | 34925 ft | 466 kts | 132° |
| 2026-04-26 02:03 | 12.02668 | 146.55522 | 34925 ft | 466 kts | 132° |
| 2026-04-26 02:04 | 11.98427 | 146.60509 | 34925 ft | 467 kts | 132° |
| 2026-04-26 02:04 | 11.94154 | 146.65530 | 34924 ft | 465 kts | 132° |
| 2026-04-26 02:05 | 11.89879 | 146.70554 | 34925 ft | 466 kts | 132° |
| 2026-04-26 02:05 | 11.85617 | 146.75557 | 34923 ft | 465 kts | 132° |
| 2026-04-26 02:06 | 11.81373 | 146.80536 | 34922 ft | 464 kts | 132° |
| 2026-04-26 02:06 | 11.77141 | 146.85500 | 34918 ft | 464 kts | 132° |
| 2026-04-26 02:07 | 11.72890 | 146.90483 | 34917 ft | 463 kts | 132° |
| 2026-04-26 02:07 | 11.68672 | 146.95427 | 34908 ft | 463 kts | 132° |
| 2026-04-26 02:08 | 11.64431 | 147.00395 | 34905 ft | 463 kts | 132° |
| 2026-04-26 02:08 | 11.60169 | 147.05385 | 34908 ft | 462 kts | 132° |
| 2026-04-26 02:09 | 11.55923 | 147.10350 | 34909 ft | 462 kts | 132° |
| 2026-04-26 02:09 | 11.51695 | 147.15292 | 34909 ft | 462 kts | 132° |
| 2026-04-26 02:10 | 11.47457 | 147.20245 | 34907 ft | 462 kts | 132° |
| 2026-04-26 02:10 | 11.43236 | 147.25174 | 34902 ft | 462 kts | 132° |
| 2026-04-26 02:11 | 11.38992 | 147.30129 | 34900 ft | 461 kts | 132° |
| 2026-04-26 02:11 | 11.34790 | 147.35030 | 34900 ft | 462 kts | 132° |
| 2026-04-26 02:12 | 11.30559 | 147.39964 | 34898 ft | 461 kts | 132° |
| 2026-04-26 02:12 | 11.26352 | 147.44867 | 34894 ft | 460 kts | 132° |
| 2026-04-26 02:13 | 11.22141 | 147.49774 | 34895 ft | 461 kts | 132° |
| 2026-04-26 02:13 | 11.17901 | 147.54710 | 34891 ft | 461 kts | 132° |
| 2026-04-26 02:14 | 11.13669 | 147.59637 | 34889 ft | 461 kts | 132° |
| 2026-04-26 02:14 | 11.09452 | 147.64545 | 34891 ft | 460 kts | 132° |
| 2026-04-26 02:15 | 11.05215 | 147.69475 | 34885 ft | 460 kts | 132° |
| 2026-04-26 02:15 | 11.00990 | 147.74387 | 34884 ft | 460 kts | 132° |
| 2026-04-26 02:16 | 10.96758 | 147.79305 | 34883 ft | 460 kts | 132° |
| 2026-04-26 02:16 | 10.92541 | 147.84201 | 34885 ft | 460 kts | 132° |
| 2026-04-26 02:17 | 10.88311 | 147.89111 | 34882 ft | 458 kts | 132° |
| 2026-04-26 02:17 | 10.84094 | 147.94002 | 34884 ft | 458 kts | 132° |
| 2026-04-26 02:18 | 10.79881 | 147.98888 | 34883 ft | 458 kts | 132° |
| 2026-04-26 02:18 | 10.75670 | 148.03769 | 34883 ft | 456 kts | 132° |
| 2026-04-26 02:19 | 10.71503 | 148.08588 | 34882 ft | 456 kts | 132° |
| 2026-04-26 02:19 | 10.67302 | 148.13423 | 34885 ft | 454 kts | 133° |
| 2026-04-26 02:20 | 10.63143 | 148.18227 | 34884 ft | 454 kts | 132° |
| 2026-04-26 02:20 | 10.58990 | 148.23056 | 34883 ft | 453 kts | 132° |
| 2026-04-26 02:21 | 10.54833 | 148.27902 | 34884 ft | 451 kts | 132° |
| 2026-04-26 02:21 | 10.50710 | 148.32718 | 34884 ft | 452 kts | 131° |
| 2026-04-26 02:22 | 10.46587 | 148.37535 | 34884 ft | 449 kts | 132° |
| 2026-04-26 02:22 | 10.42499 | 148.42311 | 34884 ft | 449 kts | 132° |
| 2026-04-26 02:23 | 10.38395 | 148.47101 | 34884 ft | 449 kts | 131° |
| 2026-04-26 02:23 | 10.34317 | 148.51862 | 34884 ft | 449 kts | 131° |
| 2026-04-26 02:24 | 10.30215 | 148.56645 | 34885 ft | 447 kts | 131° |
| 2026-04-26 02:24 | 10.26129 | 148.61409 | 34884 ft | 448 kts | 131° |
| 2026-04-26 02:25 | 10.22028 | 148.66190 | 34884 ft | 448 kts | 131° |
| 2026-04-26 02:25 | 10.17915 | 148.70981 | 34885 ft | 447 kts | 131° |
| 2026-04-26 02:26 | 10.13824 | 148.75745 | 34883 ft | 448 kts | 131° |
| 2026-04-26 02:26 | 10.09746 | 148.80492 | 34885 ft | 448 kts | 131° |
| 2026-04-26 02:27 | 10.05629 | 148.85283 | 34884 ft | 447 kts | 131° |
| 2026-04-26 02:27 | 10.01524 | 148.90057 | 34884 ft | 448 kts | 131° |
| 2026-04-26 02:28 | 9.97444 | 148.94800 | 34884 ft | 449 kts | 131° |
| 2026-04-26 02:28 | 9.93325 | 148.99588 | 34882 ft | 448 kts | 131° |
| 2026-04-26 02:29 | 9.89244 | 149.04329 | 34882 ft | 449 kts | 131° |
| 2026-04-26 02:29 | 9.85137 | 149.09097 | 34880 ft | 447 kts | 131° |
| 2026-04-26 02:30 | 9.81031 | 149.13863 | 34883 ft | 448 kts | 131° |
| 2026-04-26 02:30 | 9.76905 | 149.18649 | 34880 ft | 449 kts | 131° |
| 2026-04-26 02:31 | 9.72812 | 149.23396 | 34879 ft | 448 kts | 131° |
| 2026-04-26 02:31 | 9.68685 | 149.28178 | 34878 ft | 449 kts | 131° |
| 2026-04-26 02:32 | 9.64575 | 149.32942 | 34878 ft | 448 kts | 131° |
| 2026-04-26 02:32 | 9.60476 | 149.37689 | 34875 ft | 449 kts | 131° |
| 2026-04-26 02:33 | 9.56377 | 149.42435 | 34875 ft | 448 kts | 131° |
| 2026-04-26 02:33 | 9.52290 | 149.47165 | 34874 ft | 447 kts | 131° |
| 2026-04-26 02:34 | 9.48200 | 149.51897 | 34872 ft | 447 kts | 131° |
| 2026-04-26 02:34 | 9.44100 | 149.56638 | 34873 ft | 447 kts | 131° |
| 2026-04-26 02:35 | 9.39977 | 149.61404 | 34869 ft | 447 kts | 131° |
| 2026-04-26 02:35 | 9.35897 | 149.66119 | 34869 ft | 446 kts | 131° |
| 2026-04-26 02:36 | 9.31825 | 149.70822 | 34871 ft | 447 kts | 131° |
| 2026-04-26 02:36 | 9.27720 | 149.75562 | 34870 ft | 446 kts | 131° |
| 2026-04-26 02:37 | 9.23619 | 149.80295 | 34868 ft | 445 kts | 131° |
| 2026-04-26 02:37 | 9.19531 | 149.85010 | 34864 ft | 445 kts | 131° |
| 2026-04-26 02:38 | 9.15463 | 149.89702 | 34865 ft | 445 kts | 131° |
| 2026-04-26 02:38 | 9.11363 | 149.94429 | 34863 ft | 445 kts | 131° |
| 2026-04-26 02:39 | 9.07310 | 149.99098 | 34864 ft | 444 kts | 131° |
| 2026-04-26 02:39 | 9.03235 | 150.03792 | 34864 ft | 444 kts | 131° |
| 2026-04-26 02:40 | 8.99152 | 150.08493 | 34865 ft | 444 kts | 131° |
| 2026-04-26 02:40 | 8.95088 | 150.13171 | 34864 ft | 443 kts | 131° |
| 2026-04-26 02:41 | 8.90996 | 150.17880 | 34865 ft | 444 kts | 131° |
| 2026-04-26 02:41 | 8.86909 | 150.22582 | 34869 ft | 444 kts | 131° |
| 2026-04-26 02:42 | 8.82811 | 150.27295 | 34870 ft | 445 kts | 131° |
| 2026-04-26 02:42 | 8.78721 | 150.31995 | 34870 ft | 445 kts | 131° |
| 2026-04-26 02:43 | 8.72585 | 150.39046 | 34750 ft | 442 kts | 131° |
| 2026-04-26 02:43 | 8.70551 | 150.41382 | 34356 ft | 435 kts | 131° |
| 2026-04-26 02:43 | 8.68558 | 150.43671 | 33819 ft | 435 kts | 131° |
| 2026-04-26 02:44 | 8.66567 | 150.45955 | 33318 ft | 433 kts | 131° |
| 2026-04-26 02:44 | 8.64567 | 150.48251 | 32938 ft | 440 kts | 131° |
| 2026-04-26 02:44 | 8.62524 | 150.50595 | 32460 ft | 445 kts | 130° |
| 2026-04-26 02:44 | 8.60486 | 150.52934 | 31985 ft | 441 kts | 130° |
| 2026-04-26 02:45 | 8.58483 | 150.55232 | 31506 ft | 437 kts | 130° |
| 2026-04-26 02:45 | 8.56476 | 150.57533 | 31008 ft | 433 kts | 130° |
| 2026-04-26 02:45 | 8.54492 | 150.59808 | 30519 ft | 429 kts | 130° |
| 2026-04-26 02:45 | 8.52534 | 150.62056 | 30032 ft | 425 kts | 130° |
| 2026-04-26 02:46 | 8.50586 | 150.64291 | 29544 ft | 421 kts | 130° |
| 2026-04-26 02:46 | 8.48666 | 150.66493 | 29062 ft | 417 kts | 130° |
| 2026-04-26 02:46 | 8.46752 | 150.68687 | 28586 ft | 414 kts | 130° |
| 2026-04-26 02:46 | 8.44854 | 150.70862 | 28118 ft | 410 kts | 130° |
| 2026-04-26 02:47 | 8.42986 | 150.73003 | 27644 ft | 407 kts | 130° |
| 2026-04-26 02:47 | 8.41112 | 150.75150 | 27162 ft | 405 kts | 130° |
| 2026-04-26 02:47 | 8.39264 | 150.77269 | 26691 ft | 402 kts | 130° |
| 2026-04-26 02:47 | 8.37429 | 150.79372 | 26213 ft | 399 kts | 130° |
| 2026-04-26 02:48 | 8.35599 | 150.81470 | 25742 ft | 396 kts | 130° |
| 2026-04-26 02:48 | 8.33789 | 150.83545 | 25272 ft | 393 kts | 130° |
| 2026-04-26 02:48 | 8.31995 | 150.85600 | 24799 ft | 390 kts | 130° |
| 2026-04-26 02:48 | 8.30195 | 150.87660 | 24333 ft | 387 kts | 130° |
| 2026-04-26 02:49 | 8.28408 | 150.89705 | 23862 ft | 385 kts | 130° |
| 2026-04-26 02:49 | 8.26645 | 150.91722 | 23402 ft | 382 kts | 130° |
| 2026-04-26 02:49 | 8.24887 | 150.93730 | 22939 ft | 379 kts | 130° |
| 2026-04-26 02:49 | 8.23143 | 150.95723 | 22478 ft | 377 kts | 130° |
| 2026-04-26 02:50 | 8.21422 | 150.97691 | 22022 ft | 374 kts | 130° |
| 2026-04-26 02:50 | 8.19708 | 150.99651 | 21566 ft | 372 kts | 130° |
| 2026-04-26 02:50 | 8.17991 | 151.01613 | 21100 ft | 370 kts | 130° |
| 2026-04-26 02:50 | 8.16299 | 151.03548 | 20640 ft | 368 kts | 130° |
| 2026-04-26 02:51 | 8.14603 | 151.05486 | 20172 ft | 366 kts | 130° |
| 2026-04-26 02:51 | 8.12929 | 151.07399 | 19712 ft | 363 kts | 130° |
| 2026-04-26 02:51 | 8.11268 | 151.09297 | 19253 ft | 361 kts | 130° |
| 2026-04-26 02:51 | 8.09608 | 151.11195 | 18791 ft | 359 kts | 130° |
| 2026-04-26 02:52 | 8.07961 | 151.13081 | 18326 ft | 357 kts | 130° |
| 2026-04-26 02:52 | 8.06314 | 151.14969 | 17861 ft | 354 kts | 130° |
| 2026-04-26 02:52 | 8.04702 | 151.16815 | 17530 ft | 348 kts | 130° |
| 2026-04-26 02:52 | 8.03115 | 151.18631 | 17158 ft | 343 kts | 129° |
| 2026-04-26 02:53 | 8.01562 | 151.20407 | 16742 ft | 340 kts | 129° |
| 2026-04-26 02:53 | 7.99998 | 151.22192 | 16303 ft | 338 kts | 129° |
| 2026-04-26 02:53 | 7.98436 | 151.23976 | 15859 ft | 336 kts | 129° |
| 2026-04-26 02:53 | 7.96903 | 151.25723 | 15423 ft | 334 kts | 129° |
| 2026-04-26 02:54 | 7.95364 | 151.27480 | 14995 ft | 331 kts | 129° |
| 2026-04-26 02:54 | 7.93852 | 151.29202 | 14564 ft | 329 kts | 129° |
| 2026-04-26 02:54 | 7.92330 | 151.30939 | 14142 ft | 326 kts | 129° |
| 2026-04-26 02:54 | 7.90842 | 151.32636 | 13713 ft | 324 kts | 129° |
| 2026-04-26 02:55 | 7.89353 | 151.34335 | 13293 ft | 321 kts | 129° |
| 2026-04-26 02:55 | 7.87872 | 151.36023 | 12880 ft | 318 kts | 129° |
| 2026-04-26 02:55 | 7.86418 | 151.37680 | 12461 ft | 316 kts | 129° |
| 2026-04-26 02:55 | 7.84969 | 151.39333 | 12058 ft | 313 kts | 129° |
| 2026-04-26 02:56 | 7.83524 | 151.40979 | 11645 ft | 311 kts | 129° |
| 2026-04-26 02:56 | 7.82098 | 151.42606 | 11247 ft | 308 kts | 129° |
| 2026-04-26 02:56 | 7.80684 | 151.44217 | 10849 ft | 305 kts | 129° |
| 2026-04-26 02:56 | 7.79253 | 151.45783 | 10451 ft | 306 kts | 133° |
| 2026-04-26 02:57 | 7.77570 | 151.47038 | 10214 ft | 301 kts | 148° |
| 2026-04-26 02:57 | 7.75679 | 151.47922 | 10105 ft | 292 kts | 154° |
| 2026-04-26 02:57 | 7.73799 | 151.48669 | 9857 ft | 286 kts | 155° |
| 2026-04-26 02:57 | 7.71950 | 151.49412 | 9459 ft | 286 kts | 154° |
| 2026-04-26 02:58 | 7.70120 | 151.50186 | 9100 ft | 284 kts | 153° |
| 2026-04-26 02:58 | 7.68317 | 151.50977 | 8750 ft | 281 kts | 153° |
| 2026-04-26 02:58 | 7.66521 | 151.51778 | 8398 ft | 279 kts | 152° |
| 2026-04-26 02:58 | 7.64754 | 151.52570 | 8053 ft | 277 kts | 152° |
| 2026-04-26 02:59 | 7.62997 | 151.53357 | 7711 ft | 275 kts | 152° |
| 2026-04-26 02:59 | 7.61268 | 151.54129 | 7374 ft | 272 kts | 152° |
| 2026-04-26 02:59 | 7.59536 | 151.54903 | 7036 ft | 270 kts | 152° |
| 2026-04-26 02:59 | 7.57819 | 151.55670 | 6701 ft | 268 kts | 152° |
| 2026-04-26 03:00 | 7.56104 | 151.56435 | 6373 ft | 266 kts | 152° |
| 2026-04-26 03:00 | 7.54419 | 151.57185 | 6045 ft | 264 kts | 152° |
| 2026-04-26 03:00 | 7.52745 | 151.57933 | 5718 ft | 262 kts | 152° |
| 2026-04-26 03:00 | 7.51080 | 151.58676 | 5393 ft | 260 kts | 152° |
| 2026-04-26 03:01 | 7.49434 | 151.59412 | 5076 ft | 259 kts | 152° |
| 2026-04-26 03:01 | 7.47795 | 151.60143 | 4873 ft | 252 kts | 152° |
| 2026-04-26 03:01 | 7.46199 | 151.60854 | 4795 ft | 244 kts | 152° |
| 2026-04-26 03:01 | 7.44664 | 151.61539 | 4723 ft | 237 kts | 152° |
| 2026-04-26 03:02 | 7.43236 | 151.62283 | 4616 ft | 224 kts | 141° |
| 2026-04-26 03:02 | 7.42067 | 151.63280 | 4344 ft | 218 kts | 131° |
| 2026-04-26 03:02 | 7.41022 | 151.64366 | 4079 ft | 215 kts | 130° |
| 2026-04-26 03:02 | 7.39979 | 151.65434 | 3814 ft | 211 kts | 131° |
| 2026-04-26 03:03 | 7.38941 | 151.66449 | 3599 ft | 201 kts | 132° |
| 2026-04-26 03:03 | 7.37954 | 151.67397 | 3386 ft | 193 kts | 131° |
| 2026-04-26 03:03 | 7.37006 | 151.68311 | 3173 ft | 183 kts | 131° |
| 2026-04-26 03:03 | 7.36107 | 151.69185 | 3027 ft | 171 kts | 130° |
| 2026-04-26 03:04 | 7.35260 | 151.70018 | 2914 ft | 171 kts | 129° |
| 2026-04-26 03:04 | 7.34619 | 151.70996 | 2772 ft | 165 kts | 101° |
| 2026-04-26 03:04 | 7.34716 | 151.72122 | 2679 ft | 162 kts | 66° |
| 2026-04-26 03:04 | 7.35355 | 151.73061 | 2551 ft | 166 kts | 50° |
| 2026-04-26 03:05 | 7.36160 | 151.73857 | 2398 ft | 157 kts | 48° |
| 2026-04-26 03:05 | 7.36934 | 151.74635 | 2241 ft | 150 kts | 50° |
| 2026-04-26 03:05 | 7.37641 | 151.75371 | 2086 ft | 143 kts | 50° |
| 2026-04-26 03:05 | 7.38311 | 151.76051 | 1960 ft | 135 kts | 50° |
| 2026-04-26 03:06 | 7.38975 | 151.76732 | 1864 ft | 132 kts | 50° |
| 2026-04-26 03:06 | 7.39605 | 151.77393 | 1794 ft | 135 kts | 51° |
| 2026-04-26 03:06 | 7.40290 | 151.78113 | 1634 ft | 144 kts | 50° |
| 2026-04-26 03:06 | 7.40998 | 151.78845 | 1350 ft | 149 kts | 50° |
| 2026-04-26 03:07 | 7.41726 | 151.79597 | 1121 ft | 147 kts | 50° |
| 2026-04-26 03:07 | 7.42431 | 151.80328 | 917 ft | 141 kts | 51° |
| 2026-04-26 03:07 | 7.43105 | 151.81020 | 685 ft | 141 kts | 51° |
| 2026-04-26 03:07 | 7.43797 | 151.81732 | 458 ft | 138 kts | 54° |
| 2026-04-26 03:08 | 7.44410 | 151.82471 | 247 ft | 140 kts | 53° |
| 2026-04-26 03:08 | 7.45124 | 151.83133 | 131 ft | 136 kts | 52° |
| 2026-04-26 03:08 | 7.45738 | 151.83815 | 22 ft | 126 kts | 53° |
| 2026-04-26 03:08 | 7.46134 | 151.84245 | 22 ft | 39 kts | 64° |
| 2026-04-26 03:09 | 7.46255 | 151.84376 | 26 ft | 21 kts | 44° |
| 2026-04-26 03:09 | 7.46354 | 151.84482 | 26 ft | 18 kts | 48° |
| 2026-04-26 03:09 | 7.46401 | 151.84531 | 26 ft | 4 kts | 16° |
| 2026-04-26 03:09 | 7.46397 | 151.84515 | 26 ft | 3 kts | 227° |
| 2026-04-26 03:10 | 7.46381 | 151.84499 | 26 ft | 4 kts | 226° |
| 2026-04-26 03:10 | 7.46349 | 151.84467 | 26 ft | 8 kts | 226° |
| 2026-04-26 03:10 | 7.46296 | 151.84412 | 26 ft | 13 kts | 226° |
| 2026-04-26 03:10 | 7.46223 | 151.84335 | 25 ft | 17 kts | 226° |
| 2026-04-26 03:11 | 7.46130 | 151.84238 | 22 ft | 17 kts | 225° |
| 2026-04-26 03:11 | 7.46044 | 151.84148 | 20 ft | 18 kts | 226° |
| 2026-04-26 03:11 | 7.45969 | 151.84070 | 20 ft | 12 kts | 226° |
| 2026-04-26 03:11 | 7.45895 | 151.84039 | 20 ft | 12 kts | 152° |
| 2026-04-26 03:12 | 7.45849 | 151.84094 | 21 ft | 10 kts | 124° |
| 2026-04-26 03:12 | 7.45826 | 151.84122 | 21 ft | 0 kts | 122° |
| 2026-04-26 03:12 | 7.45826 | 151.84123 | 21 ft | 0 kts | 125° |
| 2026-04-26 03:12 | 7.45818 | 151.84131 | 21 ft | 0 kts | 133° |